Time;durP1;ratioP1;P1;durP2;ratioP2;P2;SDS_P1;SDS_P2;PMS_P1;PMS_P2;Temp;Humidity;BMP_temperature;BMP_pressure;BME280_temperature;BME280_humidity;BME280_pressure;Samples;Min_cycle;Max_cycle;Signal;HPM_P1;HPM_P2
2022/12/23 00:01:46;;;;;;;62.37;29.30;;;;;;;-141.28;100.00;49086.03;5085694;28;20454;-76
2022/12/23 00:04:12;;;;;;;57.97;28.70;;;;;;;-141.28;100.00;49099.78;5084732;28;20446;-75
2022/12/23 00:06:41;;;;;;;64.70;29.17;;;;;;;-141.28;100.00;49050.72;5080985;28;20903;-76
2022/12/23 00:09:08;;;;;;;60.07;27.33;;;;;;;-141.28;100.00;49078.19;5073962;28;20991;-76
2022/12/23 00:11:35;;;;;;;52.43;26.47;;;;;;;-141.28;100.00;49058.56;5073934;28;20493;-78
2022/12/23 00:16:46;;;;;;;74.87;32.10;;;;;;;-141.28;100.00;49062.50;5073914;28;20484;-78
2022/12/23 00:19:13;;;;;;;65.70;29.00;;;;;;;-141.28;100.00;49070.34;5071627;28;21032;-79
2022/12/23 00:21:42;;;;;;;66.83;28.67;;;;;;;-141.28;100.00;49054.66;5073845;28;20784;-80
2022/12/23 00:24:12;;;;;;;66.97;29.50;;;;;;;-141.28;100.00;49056.59;5073914;28;20871;-77
2022/12/23 00:26:39;;;;;;;64.67;28.80;;;;;;;-141.28;100.00;49074.25;5074036;28;20512;-80
2022/12/23 00:29:06;;;;;;;59.73;30.23;;;;;;;-141.28;100.00;49068.38;5073811;28;20438;-77
2022/12/23 00:31:32;;;;;;;65.33;31.40;;;;;;;-141.28;100.00;49070.34;5073169;28;20483;-76
2022/12/23 00:34:00;;;;;;;65.97;31.43;;;;;;;-141.28;100.00;49062.50;5073519;28;20451;-75
2022/12/23 00:36:28;;;;;;;67.20;30.57;;;;;;;-141.28;100.00;49076.22;5080613;28;20490;-78
2022/12/23 00:44:27;;;;;;;58.50;29.80;;;;;;;-141.28;100.00;49089.97;5074884;28;20572;-81
2022/12/23 00:46:55;;;;;;;64.00;28.93;;;;;;;-141.28;100.00;49048.75;5076704;28;20465;-75
2022/12/23 00:52:17;;;;;;;51.50;25.90;;;;;;;-141.28;100.00;49076.22;4992609;28;20446;-77
2022/12/23 00:54:46;;;;;;;53.37;25.60;;;;;;;-141.28;100.00;49050.72;5061002;28;20434;-74
2022/12/23 00:57:13;;;;;;;55.67;25.80;;;;;;;-141.28;100.00;49011.47;5084095;28;20486;-73
2022/12/23 00:59:40;;;;;;;54.90;25.47;;;;;;;-141.28;100.00;48995.78;5080858;28;20443;-73
2022/12/23 01:07:35;;;;;;;55.83;25.83;;;;;;;-141.28;100.00;49011.47;5072589;28;20446;-76
2022/12/23 01:10:04;;;;;;;67.87;27.17;;;;;;;-141.28;100.00;49003.63;5073056;28;20458;-74
2022/12/23 01:12:31;;;;;;;56.37;26.47;;;;;;;-141.28;100.00;48989.91;5072430;28;20442;-78
2022/12/23 01:14:58;;;;;;;57.43;26.47;;;;;;;-141.28;100.00;48984.00;5072537;28;20503;-77
2022/12/23 01:17:25;;;;;;;55.83;25.33;;;;;;;-141.28;100.00;49011.47;5072333;28;20488;-75
2022/12/23 01:19:52;;;;;;;59.77;26.33;;;;;;;-141.28;100.00;48999.72;5072628;28;20450;-75
2022/12/23 01:22:18;;;;;;;56.73;25.57;;;;;;;-141.28;100.00;49015.41;5072529;28;20515;-79
2022/12/23 01:24:45;;;;;;;53.53;26.30;;;;;;;-141.28;100.00;49035.03;5072833;28;20446;-76
2022/12/23 01:27:14;;;;;;;63.63;28.67;;;;;;;-141.28;100.00;49031.09;5072311;28;20438;-78
2022/12/23 01:29:41;;;;;;;67.20;29.33;;;;;;;-141.28;100.00;49035.03;5072901;28;20450;-75
2022/12/23 01:32:08;;;;;;;61.90;28.27;;;;;;;-141.28;100.00;49050.72;5072201;28;20470;-78
2022/12/23 01:34:35;;;;;;;63.20;27.77;;;;;;;-141.28;100.00;49082.13;5072141;28;20883;-76
2022/12/23 01:37:01;;;;;;;57.27;26.53;;;;;;;-141.28;100.00;49125.28;5072072;28;20490;-76
2022/12/23 01:39:28;;;;;;;59.47;27.97;;;;;;;-141.28;100.00;49109.59;5072228;28;20482;-76
2022/12/23 01:44:54;;;;;;;58.00;27.37;;;;;;;-141.28;100.00;49209.66;5072251;28;20454;-74
2022/12/23 01:47:26;;;;;;;62.67;28.47;;;;;;;-141.28;100.00;49195.91;5061153;28;20964;-77
2022/12/23 01:49:58;;;;;;;65.57;28.73;;;;;;;-141.28;100.00;49192.00;5071731;28;20516;-76
2022/12/23 01:52:25;;;;;;;67.23;30.43;;;;;;;-141.28;100.00;49211.59;5074152;28;20446;-76
2022/12/23 01:54:53;;;;;;;60.80;29.00;;;;;;;-141.28;100.00;49217.50;5071913;28;20876;-78
2022/12/23 01:57:20;;;;;;;66.03;30.90;;;;;;;-141.28;100.00;49223.38;5054158;28;20485;-75
2022/12/23 02:05:21;;;;;;;69.73;32.13;;;;;;;-141.28;100.00;49243.00;5071989;28;20811;-77
2022/12/23 02:10:56;;;;;;;78.60;34.27;;;;;;;-141.28;100.00;49235.16;5071703;28;20980;-75
2022/12/23 02:13:34;;;;;;;73.27;33.33;;;;;;;-141.28;100.00;49195.91;5072178;28;20450;-79
2022/12/23 02:16:17;;;;;;;70.17;31.63;;;;;;;-141.28;100.00;49168.44;5072039;28;20442;-75
2022/12/23 02:19:10;;;;;;;67.87;30.37;;;;;;;-141.28;100.00;49199.84;5071812;28;20448;-76
2022/12/23 02:21:55;;;;;;;71.13;31.33;;;;;;;-141.28;100.00;49188.06;5071610;28;20450;-76
2022/12/23 02:24:55;;;;;;;74.37;31.83;;;;;;;-141.28;100.00;49197.88;5071577;28;20450;-76
2022/12/23 02:27:30;;;;;;;75.50;33.40;;;;;;;-141.28;100.00;49188.06;5069275;28;20461;-76
2022/12/23 02:30:27;;;;;;;76.40;32.27;;;;;;;-141.28;100.00;49168.44;5071771;28;20454;-77
2022/12/23 02:33:08;;;;;;;71.60;31.10;;;;;;;-141.28;100.00;49174.34;5058472;28;20473;-78
2022/12/23 02:35:45;;;;;;;77.57;32.43;;;;;;;-141.28;100.00;49178.25;5072832;28;20438;-76
2022/12/23 02:38:15;;;;;;;70.30;31.63;;;;;;;-141.28;100.00;49148.81;5073269;28;20496;-76
2022/12/23 02:40:53;;;;;;;74.13;31.20;;;;;;;-141.28;100.00;49164.53;5060477;28;20827;-77
2022/12/23 02:43:28;;;;;;;67.73;31.73;;;;;;;-141.28;100.00;49186.09;5071970;28;21034;-76
2022/12/23 02:46:05;;;;;;;66.23;30.07;;;;;;;-141.28;100.00;49176.28;5072184;28;20442;-77
2022/12/23 02:48:37;;;;;;;61.80;28.23;;;;;;;-141.28;100.00;49188.06;5074605;28;20446;-75
2022/12/23 02:51:08;;;;;;;65.93;30.13;;;;;;;-141.28;100.00;49184.13;5071390;28;20446;-75
2022/12/23 02:53:40;;;;;;;62.17;30.50;;;;;;;-141.28;100.00;49235.16;5071014;28;20596;-78
2022/12/23 02:56:10;;;;;;;59.50;28.13;;;;;;;-141.28;100.00;49225.34;5071027;28;20489;-76
2022/12/23 02:58:46;;;;;;;59.27;27.63;;;;;;;-141.28;100.00;49235.16;5071343;28;20533;-77
2022/12/23 03:01:16;;;;;;;56.20;27.60;;;;;;;-141.28;100.00;49262.63;5071216;28;20450;-80
2022/12/23 03:03:45;;;;;;;51.13;26.37;;;;;;;-141.28;100.00;49258.69;5071206;28;20454;-76
2022/12/23 03:06:19;;;;;;;47.63;24.47;;;;;;;-141.28;100.00;49254.78;5071319;28;20435;-78
2022/12/23 03:08:47;;;;;;;55.97;25.30;;;;;;;-141.28;100.00;49270.47;5073850;28;20447;-76
2022/12/23 03:11:16;;;;;;;53.47;24.83;;;;;;;-141.28;100.00;49278.31;5071057;28;20474;-75
2022/12/23 03:14:10;;;;;;;47.27;24.30;;;;;;;-141.28;100.00;49290.09;5067364;28;20470;-75
2022/12/23 03:16:48;;;;;;;50.37;23.03;;;;;;;-141.28;100.00;49268.50;5069880;28;20489;-78
2022/12/23 03:19:23;;;;;;;51.90;24.90;;;;;;;-141.28;100.00;49270.47;5071277;28;20446;-77
2022/12/23 03:21:59;;;;;;;48.50;23.10;;;;;;;-141.28;100.00;49270.47;5071393;28;20864;-79
2022/12/23 03:24:36;;;;;;;73.67;32.00;;;;;;;-141.28;100.00;49274.41;5071780;28;21018;-76
2022/12/23 03:27:10;;;;;;;58.50;28.67;;;;;;;-141.28;100.00;49278.31;5070451;28;20533;-75
2022/12/23 03:29:41;;;;;;;51.83;25.80;;;;;;;-141.28;100.00;49266.56;5074835;28;20504;-75
2022/12/23 03:32:12;;;;;;;48.40;23.93;;;;;;;-141.28;100.00;49262.63;5074539;28;20481;-75
2022/12/23 03:34:43;;;;;;;44.57;23.53;;;;;;;-141.28;100.00;49256.75;5074745;28;20953;-75
2022/12/23 03:37:12;;;;;;;49.37;24.37;;;;;;;-141.28;100.00;49270.47;5074455;28;20478;-76
2022/12/23 03:39:46;;;;;;;49.20;23.73;;;;;;;-141.28;100.00;49272.44;5074691;28;20451;-75
2022/12/23 03:42:17;;;;;;;49.93;24.87;;;;;;;-141.28;100.00;49294.03;5074672;28;20446;-75
2022/12/23 03:44:49;;;;;;;61.23;26.70;;;;;;;-141.28;100.00;49313.66;5075001;28;20446;-75
2022/12/23 03:47:25;;;;;;;62.43;26.70;;;;;;;-141.28;100.00;49303.84;5074806;28;21013;-76
2022/12/23 03:49:55;;;;;;;60.97;27.67;;;;;;;-141.28;100.00;49299.91;5074785;28;20470;-76
2022/12/23 03:52:27;;;;;;;62.27;27.20;;;;;;;-141.28;100.00;49337.19;5074291;28;20454;-75
2022/12/23 03:54:56;;;;;;;63.83;27.23;;;;;;;-141.28;100.00;49348.97;5074067;28;20439;-76
2022/12/23 03:57:29;;;;;;;57.00;26.73;;;;;;;-141.28;100.00;49392.13;5056230;28;21000;-76
2022/12/23 03:59:57;;;;;;;56.33;25.60;;;;;;;-141.28;100.00;49401.94;5073930;28;20835;-73
2022/12/23 04:02:33;;;;;;;50.93;24.87;;;;;;;-141.28;100.00;49407.84;5073985;28;20443;-75
2022/12/23 04:05:22;;;;;;;55.47;25.97;;;;;;;-141.28;100.00;49443.16;5074026;28;20809;-75
2022/12/23 04:07:53;;;;;;;55.73;25.43;;;;;;;-141.28;100.00;49435.31;5062290;28;20478;-76
2022/12/23 04:10:20;;;;;;;57.30;25.03;;;;;;;-141.28;100.00;49427.44;5078551;28;20512;-74
2022/12/23 04:12:48;;;;;;;57.23;25.17;;;;;;;-141.28;100.00;49466.69;5075358;28;20474;-74
2022/12/23 04:15:21;;;;;;;55.53;26.50;;;;;;;-141.28;100.00;49458.84;5075634;28;20442;-78
2022/12/23 04:17:50;;;;;;;60.17;27.60;;;;;;;-141.28;100.00;49502.03;5074686;28;20958;-75
2022/12/23 04:20:17;;;;;;;51.30;24.43;;;;;;;-141.28;100.00;49494.16;5074228;28;20859;-76
2022/12/23 04:22:44;;;;;;;63.27;25.93;;;;;;;-141.28;100.00;49482.41;5073910;28;20503;-76
2022/12/23 04:25:12;;;;;;;61.27;27.27;;;;;;;-141.28;100.00;49517.72;5075407;28;20451;-76
2022/12/23 04:27:39;;;;;;;55.80;26.80;;;;;;;-141.28;100.00;49513.78;5074239;28;20512;-75
2022/12/23 04:30:08;;;;;;;59.83;26.80;;;;;;;-141.28;100.00;49541.25;5073514;28;20954;-75
2022/12/23 04:32:35;;;;;;;57.30;27.03;;;;;;;-141.28;100.00;49519.69;5073697;28;20466;-78
2022/12/23 04:35:04;;;;;;;55.93;25.57;;;;;;;-141.28;100.00;49551.06;5073230;28;20450;-75
2022/12/23 04:37:30;;;;;;;66.10;28.97;;;;;;;-141.28;100.00;49537.34;5073255;28;21085;-75
2022/12/23 04:39:58;;;;;;;81.27;40.80;;;;;;;-141.28;100.00;49543.22;5073057;28;20881;-77
2022/12/23 04:42:26;;;;;;;55.17;28.97;;;;;;;-141.28;100.00;49541.25;5073307;28;20439;-76
2022/12/23 04:44:53;;;;;;;52.60;25.27;;;;;;;-141.28;100.00;49517.72;5073362;28;20516;-76
2022/12/23 04:47:20;;;;;;;69.10;37.10;;;;;;;-141.28;100.00;49517.72;5073811;28;20462;-76
2022/12/23 04:49:47;;;;;;;70.40;34.13;;;;;;;-141.28;100.00;49494.16;5073495;28;20474;-75
2022/12/23 04:52:15;;;;;;;66.77;30.07;;;;;;;-141.28;100.00;49515.75;5073214;28;20442;-78
2022/12/23 04:54:42;;;;;;;57.63;28.70;;;;;;;-141.28;100.00;49517.72;5073881;28;20957;-79
2022/12/23 04:57:09;;;;;;;67.23;29.83;;;;;;;-141.28;100.00;49525.56;5073382;28;20911;-78
2022/12/23 04:59:36;;;;;;;60.00;28.97;;;;;;;-141.28;100.00;49507.91;5072906;28;20534;-75
2022/12/23 05:02:03;;;;;;;71.10;28.57;;;;;;;-141.28;100.00;49519.69;5073071;28;20814;-75
2022/12/23 05:04:30;;;;;;;66.93;30.10;;;;;;;-141.28;100.00;49502.03;5072100;28;20450;-77
2022/12/23 05:06:56;;;;;;;67.30;29.90;;;;;;;-141.28;100.00;49470.63;5073109;28;20520;-80
2022/12/23 05:09:25;;;;;;;70.47;32.00;;;;;;;-141.28;100.00;49505.94;5072593;28;20446;-75
2022/12/23 05:11:52;;;;;;;74.90;34.27;;;;;;;-141.28;100.00;49502.03;5073445;28;20450;-74
2022/12/23 05:14:19;;;;;;;82.90;33.93;;;;;;;-141.28;100.00;49474.53;5073189;28;20485;-79
2022/12/23 05:16:49;;;;;;;74.13;33.60;;;;;;;-141.28;100.00;49490.25;5073767;28;20459;-76
2022/12/23 05:19:16;;;;;;;82.57;35.93;;;;;;;-141.28;100.00;49511.84;5073778;28;20450;-76
2022/12/23 05:21:43;;;;;;;75.50;35.20;;;;;;;-141.28;100.00;49505.94;5074886;28;20841;-78
2022/12/23 05:24:11;;;;;;;80.23;35.47;;;;;;;-141.28;100.00;49478.47;5073680;28;20458;-78
2022/12/23 05:26:39;;;;;;;85.87;41.43;;;;;;;-141.28;100.00;49460.81;5073731;28;20455;-75
2022/12/23 05:29:06;;;;;;;81.53;38.50;;;;;;;-141.28;100.00;49494.16;5072156;28;20826;-77
2022/12/23 05:31:33;;;;;;;79.57;36.50;;;;;;;-141.28;100.00;49492.22;5072387;28;20919;-75
2022/12/23 05:34:00;;;;;;;77.03;32.20;;;;;;;-141.28;100.00;49486.31;5073439;28;20439;-76
2022/12/23 05:36:27;;;;;;;75.30;31.80;;;;;;;-141.28;100.00;49494.16;5076645;28;20445;-78
2022/12/23 05:38:54;;;;;;;73.57;32.97;;;;;;;-141.28;100.00;49490.25;5076861;28;20482;-78
2022/12/23 05:41:22;;;;;;;76.33;34.50;;;;;;;-141.28;100.00;49505.94;5076823;28;20485;-76
2022/12/23 05:43:52;;;;;;;80.80;34.23;;;;;;;-141.28;100.00;49513.78;5077158;28;20497;-77
2022/12/23 05:46:19;;;;;;;75.97;35.73;;;;;;;-141.28;100.00;49521.63;5077574;28;20442;-76
2022/12/23 05:48:46;;;;;;;87.77;40.03;;;;;;;-141.28;100.00;49513.78;5071940;28;20438;-79
2022/12/23 05:51:13;;;;;;;92.57;41.17;;;;;;;-141.28;100.00;49513.78;5072631;28;20438;-79
2022/12/23 05:53:40;;;;;;;89.17;40.33;;;;;;;-141.28;100.00;49498.09;5072192;28;20445;-76
2022/12/23 05:56:09;;;;;;;100.40;47.93;;;;;;;-141.28;100.00;49513.78;5071864;28;20454;-76
2022/12/23 05:58:36;;;;;;;125.43;59.80;;;;;;;-141.28;100.00;49490.25;5068192;28;21009;-77
2022/12/23 06:01:06;;;;;;;107.27;47.97;;;;;;;-141.28;100.00;49513.78;5061804;28;20461;-77
2022/12/23 06:03:33;;;;;;;96.70;41.00;;;;;;;-141.28;100.00;49503.97;5071620;28;20438;-76
2022/12/23 06:06:00;;;;;;;93.10;41.50;;;;;;;-141.28;100.00;49505.94;5070976;28;20496;-75
2022/12/23 06:08:27;;;;;;;121.17;50.43;;;;;;;-141.28;100.00;49509.88;5077146;28;20458;-75
2022/12/23 06:10:54;;;;;;;150.07;52.73;;;;;;;-141.28;100.00;49529.50;5072870;28;20946;-75
2022/12/23 06:13:22;;;;;;;125.90;53.53;;;;;;;-141.28;100.00;49541.25;5070926;28;20554;-78
2022/12/23 06:15:49;;;;;;;136.30;54.03;;;;;;;-141.28;100.00;49556.97;5070339;28;20442;-76
2022/12/23 06:18:18;;;;;;;108.83;47.93;;;;;;;-141.28;100.00;49576.59;5071048;28;20494;-78
2022/12/23 06:20:46;;;;;;;218.27;80.67;;;;;;;-141.28;100.00;49576.59;5071115;28;20455;-78
2022/12/23 06:23:13;;;;;;;163.27;67.83;;;;;;;-141.28;100.00;49588.34;5070364;28;20474;-75
2022/12/23 06:25:40;;;;;;;101.53;42.53;;;;;;;-141.28;100.00;49590.31;5070445;28;20466;-78
2022/12/23 06:28:07;;;;;;;115.37;48.60;;;;;;;-141.28;100.00;49592.28;5066403;28;20921;-81
2022/12/23 06:30:34;;;;;;;98.43;43.37;;;;;;;-141.28;100.00;49584.44;5071313;28;20903;-78
2022/12/23 06:33:02;;;;;;;89.63;41.00;;;;;;;-141.28;100.00;49592.28;5071410;28;20454;-78
2022/12/23 06:35:30;;;;;;;149.87;57.73;;;;;;;-141.28;100.00;49602.09;5053265;28;20538;-79
2022/12/23 06:37:57;;;;;;;102.27;45.30;;;;;;;-141.28;100.00;49619.75;5071201;28;20548;-82
2022/12/23 06:40:27;;;;;;;87.03;42.53;;;;;;;-141.28;100.00;49643.31;5071193;28;20528;-74
2022/12/23 06:42:54;;;;;;;89.87;40.37;;;;;;;-141.28;100.00;49625.66;5071329;28;20819;-77
2022/12/23 06:45:21;;;;;;;96.93;48.63;;;;;;;-141.28;100.00;49639.38;5069832;28;20445;-76
2022/12/23 06:47:48;;;;;;;104.70;47.27;;;;;;;-141.28;100.00;49625.66;5070687;28;20212;-78
2022/12/23 06:50:15;;;;;;;122.83;53.00;;;;;;;-141.28;100.00;49668.81;5071739;28;20466;-75
2022/12/23 06:52:43;;;;;;;139.93;58.93;;;;;;;-141.28;100.00;49666.84;5052992;28;20525;-76
2022/12/23 06:55:10;;;;;;;166.37;67.30;;;;;;;-141.28;100.00;49682.56;5070914;28;20962;-79
2022/12/23 06:57:38;;;;;;;138.60;55.37;;;;;;;-141.28;100.00;49690.41;5060612;28;20487;-78
2022/12/23 07:00:07;;;;;;;110.60;47.47;;;;;;;-141.28;100.00;49694.31;5074509;28;20438;-77
2022/12/23 07:02:34;;;;;;;95.47;41.07;;;;;;;-141.28;100.00;49696.28;5075061;28;20442;-75
2022/12/23 07:05:01;;;;;;;89.87;39.20;;;;;;;-141.28;100.00;49706.09;5075097;28;20438;-78
2022/12/23 07:07:28;;;;;;;86.47;38.83;;;;;;;-141.28;100.00;49710.03;5074852;28;20443;-76
2022/12/23 07:09:56;;;;;;;82.20;36.30;;;;;;;-141.28;100.00;49702.19;5075692;28;20450;-75
2022/12/23 07:12:23;;;;;;;78.00;36.33;;;;;;;-141.28;100.00;49733.56;5075254;28;20453;-78
2022/12/23 07:14:50;;;;;;;87.57;38.00;;;;;;;-141.28;100.00;49725.72;5072277;28;20461;-75
2022/12/23 07:17:18;;;;;;;85.30;41.20;;;;;;;-141.28;100.00;49757.13;5075151;28;20516;-75
2022/12/23 07:19:45;;;;;;;85.17;41.73;;;;;;;-141.28;100.00;49741.44;5074624;28;20528;-76
2022/12/23 07:22:12;;;;;;;93.27;41.03;;;;;;;-141.28;100.00;49768.91;5074648;28;20458;-75
2022/12/23 07:24:39;;;;;;;72.97;35.90;;;;;;;-141.28;100.00;49792.44;5074382;28;20450;-75
2022/12/23 07:27:08;;;;;;;80.00;38.90;;;;;;;-141.28;100.00;49784.59;5063974;28;20447;-77
2022/12/23 07:29:34;;;;;;;79.00;38.30;;;;;;;-141.28;100.00;49780.69;5077290;28;20443;-76
2022/12/23 07:32:02;;;;;;;73.90;37.80;;;;;;;-141.28;100.00;49808.16;5076480;28;20474;-75
2022/12/23 07:34:29;;;;;;;67.50;33.87;;;;;;;-141.28;100.00;49839.56;5075682;28;20824;-75
2022/12/23 07:36:56;;;;;;;69.43;36.20;;;;;;;-141.28;100.00;49827.78;5074217;28;20876;-77
2022/12/23 07:39:23;;;;;;;74.20;32.47;;;;;;;-141.28;100.00;49790.50;5074509;28;20974;-78
2022/12/23 07:41:50;;;;;;;68.20;31.40;;;;;;;-141.28;100.00;49839.56;5074786;28;20449;-74
2022/12/23 07:44:18;;;;;;;81.63;36.97;;;;;;;-141.28;100.00;49808.16;5074457;28;20886;-73
2022/12/23 07:46:45;;;;;;;67.63;35.00;;;;;;;-141.28;100.00;49843.47;5080037;28;20506;-75
2022/12/23 07:49:13;;;;;;;71.10;35.67;;;;;;;-141.28;100.00;49761.06;5080965;28;20477;-77
2022/12/23 07:51:40;;;;;;;61.10;31.03;;;;;;;-141.28;100.00;49757.13;5073879;28;20446;-75
2022/12/23 07:54:07;;;;;;;69.00;31.77;;;;;;;-141.28;100.00;49741.44;5074281;28;20822;-75
2022/12/23 07:56:34;;;;;;;86.47;41.27;;;;;;;-141.28;100.00;49745.34;5075000;28;20504;-78
2022/12/23 07:59:01;;;;;;;88.03;42.00;;;;;;;-141.28;100.00;49733.56;5072155;28;20908;-75
2022/12/23 08:01:30;;;;;;;91.60;43.47;;;;;;;-141.28;100.00;49721.81;5075577;28;20454;-77
2022/12/23 08:03:57;;;;;;;90.03;42.73;;;;;;;-141.28;100.00;49715.91;5072282;28;20446;-75
2022/12/23 08:06:24;;;;;;;104.40;40.53;;;;;;;-141.28;100.00;49721.81;5066437;28;20442;-74
2022/12/23 08:08:51;;;;;;;78.90;38.87;;;;;;;-141.28;100.00;49698.25;5073915;28;20594;-76
2022/12/23 08:11:18;;;;;;;94.07;40.37;;;;;;;-141.28;100.00;49727.69;5073034;28;20473;-75
2022/12/23 08:13:47;;;;;;;87.75;37.13;;;;;;;-141.28;100.00;49723.75;5073837;28;20450;-75
2022/12/23 08:16:14;;;;;;;93.03;38.43;;;;;;;-141.28;100.00;49706.09;5073847;28;20205;-78
2022/12/23 08:18:44;;;;;;;81.87;38.03;;;;;;;-141.28;100.00;49733.56;5064177;28;20609;-79
2022/12/23 08:21:13;;;;;;;96.80;41.27;;;;;;;-141.28;100.00;49713.94;5071894;28;20446;-77
2022/12/23 08:23:40;;;;;;;119.43;52.30;;;;;;;-141.28;100.00;49694.31;5066315;28;20969;-76
2022/12/23 08:26:10;;;;;;;151.47;59.10;;;;;;;-141.28;100.00;49686.47;5073140;28;20937;-74
2022/12/23 08:28:39;;;;;;;105.63;43.37;;;;;;;-141.28;100.00;49690.41;5055216;28;20474;-79
2022/12/23 08:31:07;;;;;;;93.83;39.50;;;;;;;-141.28;100.00;49643.31;5073551;28;20481;-75
2022/12/23 08:33:37;;;;;;;73.53;31.93;;;;;;;-141.28;100.00;49588.34;5073649;28;20559;-76
2022/12/23 08:36:07;;;;;;;70.67;33.07;;;;;;;-141.28;100.00;49568.75;5062262;28;20448;-75
2022/12/23 08:38:35;;;;;;;65.70;31.53;;;;;;;-141.28;100.00;49531.44;5066738;28;21024;-74
2022/12/23 08:41:02;;;;;;;65.27;30.40;;;;;;;-141.28;100.00;49502.03;5072815;28;20462;-78
2022/12/23 08:43:29;;;;;;;84.53;36.73;;;;;;;-141.28;100.00;49454.94;5072726;28;20454;-78
2022/12/23 08:45:55;;;;;;;69.20;31.00;;;;;;;-141.28;100.00;49411.75;5072253;28;20533;-76
2022/12/23 08:48:23;;;;;;;59.07;30.03;;;;;;;-141.28;100.00;49384.28;5072867;28;20459;-76
2022/12/23 08:50:50;;;;;;;63.07;30.93;;;;;;;-141.28;100.00;49337.19;5072603;28;20474;-77
2022/12/23 08:53:20;;;;;;;70.87;31.97;;;;;;;-141.28;100.00;49337.19;5072007;28;20449;-75
2022/12/23 08:55:48;;;;;;;66.73;32.00;;;;;;;-141.28;100.00;49292.06;5074806;28;20492;-75
2022/12/23 08:58:16;;;;;;;73.97;34.60;;;;;;;-141.28;100.00;49254.78;5077050;28;20439;-74
2022/12/23 09:00:42;;;;;;;69.67;32.50;;;;;;;-141.28;100.00;49201.81;5075098;28;20508;-75
2022/12/23 09:03:10;;;;;;;68.20;29.67;;;;;;;-141.28;100.00;49188.06;5074733;28;20953;-78
2022/12/23 09:05:41;;;;;;;64.50;29.87;;;;;;;-141.28;100.00;49176.28;5073691;28;20446;-74
2022/12/23 09:08:08;;;;;;;65.07;31.00;;;;;;;-141.28;100.00;49309.72;5073822;28;20451;-75
2022/12/23 09:10:41;;;;;;;80.30;32.43;;;;;;;-141.28;100.00;49372.50;5073058;28;20478;-76
2022/12/23 09:13:08;;;;;;;69.23;31.70;;;;;;;-141.28;100.00;49407.84;5072264;28;20830;-76
2022/12/23 09:15:37;;;;;;;56.57;30.63;;;;;;;-141.28;100.00;49447.06;5073106;28;20507;-75
2022/12/23 09:18:04;;;;;;;60.73;30.77;;;;;;;-141.28;100.00;49478.47;5072384;28;20508;-75
2022/12/23 09:20:31;;;;;;;64.13;31.70;;;;;;;-141.28;100.00;49521.63;5072562;28;21036;-78
2022/12/23 09:22:59;;;;;;;63.63;29.30;;;;;;;-141.28;100.00;49517.72;5071293;28;20976;-75
2022/12/23 09:25:26;;;;;;;62.20;29.63;;;;;;;-141.28;100.00;49553.03;5072017;28;20856;-77
2022/12/23 09:27:55;;;;;;;66.43;31.13;;;;;;;-141.28;100.00;49643.31;5072185;28;20860;-75
2022/12/23 09:30:22;;;;;;;76.13;32.07;;;;;;;-141.28;100.00;49692.38;5072711;28;20450;-72
2022/12/23 09:32:49;;;;;;;66.47;30.00;;;;;;;-141.28;100.00;49698.25;5073788;28;20480;-77
2022/12/23 09:35:17;;;;;;;59.10;28.97;;;;;;;-141.28;100.00;49710.03;5072142;28;20458;-78
2022/12/23 09:37:44;;;;;;;66.20;29.90;;;;;;;-141.28;100.00;49788.53;5071780;28;20453;-78
2022/12/23 09:40:14;;;;;;;59.97;29.57;;;;;;;-141.28;100.00;49937.69;5058765;28;20509;-77
2022/12/23 09:42:55;;;;;;;60.47;29.80;;;;;;;-141.28;100.00;50008.34;5071375;28;20458;-76
2022/12/23 09:45:41;;;;;;;55.33;29.57;;;;;;;-141.28;100.00;50218.34;5071946;28;20526;-74
2022/12/23 09:48:14;;;;;;;61.83;29.73;;;;;;;-141.28;100.00;50404.81;5071693;28;20446;-77
2022/12/23 09:50:42;;;;;;;66.07;29.27;;;;;;;-141.28;100.00;50546.13;5071738;28;20828;-75
2022/12/23 09:53:13;;;;;;;54.93;29.70;;;;;;;-141.28;100.00;50589.31;5058975;28;21010;-75
2022/12/23 09:55:49;;;;;;;56.43;30.40;;;;;;;-141.28;100.00;50636.41;5071969;28;20454;-77
2022/12/23 09:58:26;;;;;;;58.83;30.03;;;;;;;-141.28;100.00;50685.50;5071568;28;20489;-78
2022/12/23 10:01:07;;;;;;;53.70;29.57;;;;;;;-141.28;100.00;50659.97;5072322;28;20973;-75
2022/12/23 10:03:45;;;;;;;56.17;29.23;;;;;;;-141.28;100.00;50701.19;5071729;28;20478;-76
2022/12/23 10:06:19;;;;;;;66.50;31.03;;;;;;;-141.28;100.00;50699.22;5072063;28;20511;-77
2022/12/23 10:08:48;;;;;;;64.93;30.27;;;;;;;-141.28;100.00;50646.22;5058738;28;20454;-75
2022/12/23 10:11:20;;;;;;;66.70;31.40;;;;;;;-141.28;100.00;50652.13;5071758;28;20949;-79
2022/12/23 10:13:50;;;;;;;59.67;30.40;;;;;;;-141.28;100.00;50514.72;5071748;28;20953;-77
2022/12/23 10:16:22;;;;;;;57.50;30.07;;;;;;;-141.28;100.00;50510.78;5071674;28;20450;-77
2022/12/23 10:18:55;;;;;;;59.17;30.40;;;;;;;-141.28;100.00;50463.69;5071860;28;20541;-76
2022/12/23 10:21:31;;;;;;;66.70;30.63;;;;;;;-141.28;100.00;50467.59;5071620;28;20528;-77
2022/12/23 10:24:02;;;;;;;63.67;31.90;;;;;;;-141.28;100.00;50483.31;5071512;28;20533;-79
2022/12/23 10:26:34;;;;;;;65.47;32.27;;;;;;;-141.28;100.00;50424.44;5071313;28;21023;-75
2022/12/23 10:29:11;;;;;;;61.97;33.40;;;;;;;-141.28;100.00;50340.03;5071437;28;20450;-75
2022/12/23 10:31:51;;;;;;;63.90;30.63;;;;;;;-141.28;100.00;50326.28;5071505;28;20485;-77
2022/12/23 10:34:24;;;;;;;68.37;32.07;;;;;;;-141.28;100.00;50271.31;5071450;28;20937;-75
2022/12/23 10:37:00;;;;;;;65.33;31.93;;;;;;;-141.28;100.00;50192.81;5071650;28;20446;-77
2022/12/23 10:39:36;;;;;;;63.13;31.63;;;;;;;-141.28;100.00;50224.22;5071218;28;20482;-77
2022/12/23 10:42:12;;;;;;;62.00;31.90;;;;;;;-141.28;100.00;50218.34;5071797;28;20454;-79
2022/12/23 10:45:00;;;;;;;61.67;32.27;;;;;;;-141.28;100.00;50200.66;5071363;28;20446;-77
2022/12/23 10:47:40;;;;;;;57.17;31.77;;;;;;;-141.28;100.00;50216.38;5068131;28;20462;-74
2022/12/23 10:50:27;;;;;;;61.30;32.30;;;;;;;-141.28;100.00;50106.47;5074665;28;20527;-73
2022/12/23 10:53:04;;;;;;;65.83;34.13;;;;;;;-141.28;100.00;50092.72;5079817;28;20447;-73
2022/12/23 10:55:37;;;;;;;92.70;36.73;;;;;;;-141.28;100.00;50157.50;5074882;28;20448;-75
2022/12/23 10:58:15;;;;;;;78.00;37.03;;;;;;;-141.28;100.00;50126.09;5071647;28;20200;-76
2022/12/23 11:00:46;;;;;;;74.43;36.33;;;;;;;-141.28;100.00;50057.41;5071306;28;20482;-78
2022/12/23 11:03:19;;;;;;;65.67;33.97;;;;;;;-141.28;100.00;49982.81;5071493;28;20655;-75
2022/12/23 11:05:49;;;;;;;62.00;31.53;;;;;;;-141.28;100.00;49961.22;5072005;28;20632;-75
2022/12/23 11:08:17;;;;;;;67.43;33.00;;;;;;;-141.28;100.00;49941.59;5069474;28;20200;-75
2022/12/23 11:10:46;;;;;;;59.70;31.30;;;;;;;-141.28;100.00;49910.19;5071413;28;20204;-74
2022/12/23 11:13:24;;;;;;;63.23;33.50;;;;;;;-141.28;100.00;49914.13;5071193;28;20259;-77
2022/12/23 11:15:51;;;;;;;63.23;31.07;;;;;;;-141.28;100.00;49941.59;5057817;28;20227;-80
2022/12/23 11:18:20;;;;;;;66.90;31.70;;;;;;;-141.28;100.00;49986.75;5071241;28;20317;-78
2022/12/23 11:21:02;;;;;;;57.57;32.43;;;;;;;-141.28;100.00;49965.16;5058747;28;20315;-75
2022/12/23 11:23:32;;;;;;;68.67;31.47;;;;;;;-141.28;100.00;50016.19;5070987;28;20500;-75
2022/12/23 11:26:04;;;;;;;67.27;31.27;;;;;;;-141.28;100.00;50031.88;5072344;28;20291;-75
2022/12/23 11:28:34;;;;;;;67.20;30.73;;;;;;;-141.28;100.00;50118.25;5075890;28;20439;-74
2022/12/23 11:31:07;;;;;;;53.70;29.60;;;;;;;-141.28;100.00;50082.91;5077550;28;20228;-75
2022/12/23 11:33:39;;;;;;;54.30;30.30;;;;;;;-141.28;100.00;50126.09;5071981;28;20458;-75
2022/12/23 11:36:08;;;;;;;60.17;31.07;;;;;;;-141.28;100.00;50200.66;5071395;28;20823;-77